Time;durP1;ratioP1;P1;durP2;ratioP2;P2;SDS_P1;SDS_P2;PMS_P1;PMS_P2;Temp;Humidity;BMP_temperature;BMP_pressure;BME280_temperature;BME280_humidity;BME280_pressure;Samples;Min_cycle;Max_cycle;Signal;HPM_P1;HPM_P2
2023/05/03 00:02:09;;;;;;;7.95;4.00;;;;;;;12.11;75.49;93350.13;5123948;28;20047;-75
2023/05/03 00:04:36;;;;;;;5.13;2.67;;;;;;;12.00;75.36;93346.47;5110125;28;20047;-75
2023/05/03 00:07:04;;;;;;;10.27;4.22;;;;;;;11.90;75.42;93346.97;5120520;28;20051;-75
2023/05/03 00:09:33;;;;;;;8.60;4.00;;;;;;;11.74;76.69;93343.97;5115630;28;20070;-75
2023/05/03 00:12:00;;;;;;;6.47;3.17;;;;;;;11.52;77.16;93355.66;5114351;27;20040;-76
2023/05/03 00:14:27;;;;;;;7.40;3.00;;;;;;;11.49;77.31;93344.75;5119210;27;20419;-75
2023/05/03 00:16:54;;;;;;;8.30;3.90;;;;;;;11.49;78.52;93355.06;5124675;27;20414;-75
2023/05/03 00:19:21;;;;;;;12.52;3.97;;;;;;;11.38;77.75;93347.25;5121191;27;20039;-76
2023/05/03 00:21:48;;;;;;;15.70;2.88;;;;;;;11.32;79.69;93361.72;5127799;27;20946;-76
2023/05/03 00:24:16;;;;;;;12.25;3.88;;;;;;;11.29;80.66;93369.88;5118799;27;20054;-75
2023/05/03 00:26:43;;;;;;;10.68;4.03;;;;;;;11.21;81.54;93374.28;5118230;27;20104;-75
2023/05/03 00:29:10;;;;;;;15.73;3.85;;;;;;;11.25;81.15;93366.16;5111999;27;20047;-75
2023/05/03 00:31:37;;;;;;;14.88;4.05;;;;;;;11.24;81.13;93367.91;5124025;27;20051;-75
2023/05/03 00:34:03;;;;;;;13.35;3.72;;;;;;;11.21;81.40;93366.56;5124441;27;20054;-76
2023/05/03 00:36:30;;;;;;;10.75;3.97;;;;;;;11.12;81.21;93352.41;5118922;27;20448;-75
2023/05/03 00:38:57;;;;;;;11.40;3.92;;;;;;;11.06;81.89;93355.81;5118965;27;20047;-75
2023/05/03 00:41:26;;;;;;;10.13;3.50;;;;;;;10.91;84.03;93358.66;5117026;27;20050;-75
2023/05/03 00:43:53;;;;;;;13.82;5.28;;;;;;;10.84;86.08;93356.16;5117835;27;20448;-75
2023/05/03 00:46:20;;;;;;;11.35;3.83;;;;;;;10.95;86.88;93367.53;5123644;27;20043;-75
2023/05/03 00:48:49;;;;;;;8.88;3.97;;;;;;;11.00;87.36;93359.19;5113709;27;20089;-76
2023/05/03 00:51:17;;;;;;;12.60;3.80;;;;;;;10.98;88.70;93349.13;5125949;27;20051;-76
2023/05/03 00:53:44;;;;;;;6.75;2.85;;;;;;;11.02;89.20;93350.28;5120945;27;20048;-75
2023/05/03 00:56:11;;;;;;;7.80;3.13;;;;;;;11.09;88.76;93345.91;5124096;27;20047;-75
2023/05/03 00:58:40;;;;;;;7.95;3.05;;;;;;;11.16;88.40;93345.81;5121483;27;20135;-76
2023/05/03 01:01:07;;;;;;;9.63;3.67;;;;;;;11.17;87.79;93323.47;5115360;27;20088;-75
2023/05/03 01:03:35;;;;;;;6.43;3.42;;;;;;;11.28;86.09;93329.72;5119949;27;20547;-76
2023/05/03 01:06:11;;;;;;;7.13;2.90;;;;;;;11.34;85.20;93326.31;5117672;27;20202;-76
2023/05/03 01:08:44;;;;;;;8.70;2.85;;;;;;;11.33;85.08;93322.94;5107031;27;20125;-76
2023/05/03 01:11:20;;;;;;;6.18;2.63;;;;;;;11.48;83.93;93327.00;5117464;27;20050;-76
2023/05/03 01:13:54;;;;;;;8.70;3.08;;;;;;;11.55;83.40;93314.84;5119191;27;20051;-80
2023/05/03 01:16:27;;;;;;;9.95;2.90;;;;;;;11.64;83.33;93323.06;5127094;27;20121;-74
2023/05/03 01:18:56;;;;;;;6.68;3.10;;;;;;;11.68;83.59;93326.00;5119335;27;20059;-75
2023/05/03 01:21:24;;;;;;;6.72;3.08;;;;;;;11.73;81.91;93323.56;5128103;27;20043;-75
2023/05/03 01:23:59;;;;;;;10.32;3.10;;;;;;;11.74;82.46;93325.94;5130759;27;20043;-75
2023/05/03 01:26:28;;;;;;;8.70;2.80;;;;;;;11.77;81.88;93325.50;5129798;27;20039;-74
2023/05/03 01:28:55;;;;;;;7.82;3.58;;;;;;;11.75;82.22;93317.22;5129575;27;20050;-74
2023/05/03 01:31:28;;;;;;;6.50;3.40;;;;;;;11.35;82.40;93304.75;5130206;27;20053;-76
2023/05/03 01:34:11;;;;;;;8.55;3.08;;;;;;;11.22;82.69;93300.50;5129203;27;20559;-76
2023/05/03 01:36:40;;;;;;;4.50;2.40;;;;;;;11.18;82.95;93305.28;5130217;27;20050;-75
2023/05/03 01:39:12;;;;;;;6.63;2.50;;;;;;;11.16;84.07;93311.63;5129628;27;20047;-75
2023/05/03 01:41:42;;;;;;;7.82;3.33;;;;;;;11.23;83.87;93302.06;5130056;27;20043;-75
2023/05/03 01:44:11;;;;;;;7.05;3.40;;;;;;;11.35;83.05;93292.66;5129894;27;20058;-76
2023/05/03 01:46:42;;;;;;;6.85;2.83;;;;;;;11.33;82.08;93299.00;5130141;27;20563;-75
2023/05/03 01:49:09;;;;;;;4.57;2.58;;;;;;;11.34;82.41;93298.03;5129428;27;20054;-75
2023/05/03 01:51:36;;;;;;;4.07;2.90;;;;;;;11.25;83.12;93282.06;5129759;27;20452;-75
2023/05/03 01:54:03;;;;;;;5.10;3.22;;;;;;;11.28;82.69;93288.56;5129694;27;20051;-75
2023/05/03 01:56:30;;;;;;;8.07;3.58;;;;;;;11.25;80.21;93276.16;5129430;27;20503;-75
2023/05/03 01:58:58;;;;;;;6.10;2.60;;;;;;;11.25;77.85;93289.78;5129784;27;20049;-75
2023/05/03 02:01:25;;;;;;;6.07;2.67;;;;;;;11.07;77.21;93293.88;5129298;27;20111;-75
2023/05/03 02:03:52;;;;;;;6.28;3.40;;;;;;;10.98;77.37;93287.44;5128930;27;20051;-75
2023/05/03 02:06:18;;;;;;;5.10;2.88;;;;;;;10.92;75.51;93301.16;5129486;27;20043;-75
2023/05/03 02:08:45;;;;;;;5.35;2.90;;;;;;;10.91;73.54;93302.13;5129439;27;20047;-75
2023/05/03 02:11:12;;;;;;;4.65;2.28;;;;;;;10.93;74.95;93297.56;5129185;27;20118;-75
2023/05/03 02:13:39;;;;;;;4.72;2.15;;;;;;;11.00;75.79;93288.03;5129249;27;20043;-75
2023/05/03 02:16:08;;;;;;;5.55;2.42;;;;;;;11.03;77.08;93286.81;5129188;27;20043;-75
2023/05/03 02:18:35;;;;;;;4.75;2.63;;;;;;;11.08;77.52;93287.75;5128676;27;20043;-75
2023/05/03 02:21:02;;;;;;;6.45;2.60;;;;;;;11.05;77.39;93280.47;5129409;27;20099;-75
2023/05/03 02:23:29;;;;;;;7.15;3.28;;;;;;;11.15;75.83;93286.94;5129392;27;20417;-75
2023/05/03 02:25:56;;;;;;;7.07;3.45;;;;;;;11.18;77.09;93278.78;5128890;27;20054;-75
2023/05/03 02:28:22;;;;;;;5.80;2.95;;;;;;;11.08;72.09;93287.75;5129324;27;20051;-76
2023/05/03 02:30:49;;;;;;;5.35;2.60;;;;;;;11.10;73.63;93290.09;5128564;27;20088;-75
2023/05/03 02:33:17;;;;;;;7.25;2.10;;;;;;;10.73;70.24;93293.34;5128393;27;20050;-74
2023/05/03 02:35:44;;;;;;;3.88;2.33;;;;;;;10.26;71.32;93280.75;5129010;27;20133;-74
2023/05/03 02:38:11;;;;;;;5.00;2.25;;;;;;;10.33;72.16;93304.63;5114187;27;20047;-74
2023/05/03 02:40:38;;;;;;;3.40;2.03;;;;;;;10.45;73.35;93309.16;5128579;27;20051;-74
2023/05/03 02:43:05;;;;;;;16.10;7.93;;;;;;;10.38;71.56;93291.94;5128793;27;20047;-74
2023/05/03 02:45:32;;;;;;;10.65;4.75;;;;;;;10.02;74.10;93268.44;5128577;27;20513;-74
2023/05/03 02:47:59;;;;;;;15.05;4.85;;;;;;;10.41;77.87;93311.28;5128299;27;20051;-74
2023/05/03 02:50:27;;;;;;;7.25;3.78;;;;;;;10.56;77.03;93304.13;5128575;27;20078;-74
2023/05/03 02:52:54;;;;;;;6.32;3.67;;;;;;;10.58;76.36;93290.28;5101985;27;20047;-74
2023/05/03 02:55:20;;;;;;;5.82;3.25;;;;;;;10.12;73.42;93275.69;5128735;27;20051;-74
2023/05/03 02:57:47;;;;;;;5.20;3.47;;;;;;;10.00;73.30;93295.31;5128527;27;20134;-74
2023/05/03 03:00:15;;;;;;;6.60;3.08;;;;;;;10.11;75.35;93299.78;5128139;27;20047;-75
2023/05/03 03:02:42;;;;;;;5.60;2.58;;;;;;;10.11;75.88;93299.78;5128628;27;20443;-75
2023/05/03 03:05:09;;;;;;;4.60;2.35;;;;;;;9.99;74.79;93303.97;5128552;27;20039;-74
2023/05/03 03:07:38;;;;;;;4.65;2.05;;;;;;;10.05;74.21;93318.56;5128138;27;20411;-75
2023/05/03 03:10:06;;;;;;;10.60;5.05;;;;;;;9.89;75.08;93315.47;5114499;27;20567;-75
2023/05/03 03:12:33;;;;;;;14.73;6.22;;;;;;;9.89;76.03;93323.16;5127932;27;20051;-75
2023/05/03 03:15:00;;;;;;;8.45;3.75;;;;;;;10.00;78.22;93320.97;5128191;27;20050;-75
2023/05/03 03:17:27;;;;;;;5.75;2.95;;;;;;;9.84;75.60;93312.72;5128155;27;20054;-75
2023/05/03 03:19:54;;;;;;;8.70;4.15;;;;;;;9.74;74.62;93305.44;5127784;27;20456;-75
2023/05/03 03:22:20;;;;;;;5.30;2.90;;;;;;;9.71;75.04;93318.66;5128467;27;20524;-75
2023/05/03 03:24:48;;;;;;;21.73;8.77;;;;;;;9.72;76.75;93317.66;5128379;27;20035;-75
2023/05/03 03:27:15;;;;;;;27.75;10.40;;;;;;;9.76;76.38;93318.06;5128008;27;20059;-75
2023/05/03 03:29:42;;;;;;;14.18;5.60;;;;;;;9.70;76.94;93326.56;5128101;27;20163;-75
2023/05/03 03:32:08;;;;;;;7.43;3.80;;;;;;;9.79;75.64;93324.56;5128196;27;20066;-75
2023/05/03 03:34:35;;;;;;;5.32;2.50;;;;;;;9.83;74.83;93321.41;5127443;27;20043;-75
2023/05/03 03:37:02;;;;;;;6.72;3.30;;;;;;;9.93;76.28;93320.97;5127777;27;20495;-75
2023/05/03 03:39:29;;;;;;;12.20;7.90;;;;;;;9.98;77.23;93318.59;5127416;27;20043;-75
2023/05/03 03:41:57;;;;;;;12.90;7.25;;;;;;;10.11;79.15;93316.97;5127804;27;20126;-75
2023/05/03 03:44:24;;;;;;;10.40;6.38;;;;;;;10.26;77.94;93327.75;5122869;27;20153;-75
2023/05/03 03:46:51;;;;;;;8.23;4.30;;;;;;;10.34;77.39;93334.44;5119547;28;20055;-75
2023/05/03 03:49:18;;;;;;;6.93;3.33;;;;;;;10.36;74.60;93334.22;5129106;27;20035;-75
2023/05/03 03:51:44;;;;;;;6.15;3.50;;;;;;;10.45;72.20;93343.31;5132234;27;20055;-75
2023/05/03 03:54:11;;;;;;;4.22;2.97;;;;;;;10.39;72.98;93354.38;5126300;27;20051;-75
2023/05/03 03:56:38;;;;;;;5.32;3.10;;;;;;;10.19;74.45;93344.19;5124282;27;20043;-75
2023/05/03 03:59:07;;;;;;;5.00;2.30;;;;;;;9.81;77.09;93340.56;5131815;27;20051;-75
2023/05/03 04:01:33;;;;;;;5.78;2.63;;;;;;;9.70;78.24;93337.63;5131725;27;20056;-75
2023/05/03 04:04:00;;;;;;;6.10;2.97;;;;;;;9.62;80.06;93337.81;5131541;27;20141;-75
2023/05/03 04:06:27;;;;;;;8.27;3.80;;;;;;;9.69;81.64;93350.63;5131993;27;20047;-75
2023/05/03 04:08:54;;;;;;;6.03;3.58;;;;;;;9.84;81.92;93358.91;5131316;27;20129;-75
2023/05/03 04:11:21;;;;;;;9.75;4.22;;;;;;;9.95;83.56;93366.97;5131495;27;20058;-75
2023/05/03 04:13:48;;;;;;;6.88;3.35;;;;;;;10.09;85.31;93360.03;5131527;27;20035;-75
2023/05/03 04:16:16;;;;;;;7.43;4.20;;;;;;;10.22;82.89;93384.84;5131060;27;20067;-75
2023/05/03 04:18:43;;;;;;;6.95;3.72;;;;;;;10.36;80.64;93388.94;5131855;27;20135;-76
2023/05/03 04:21:10;;;;;;;8.40;3.63;;;;;;;10.44;79.90;93382.81;5131240;27;20043;-75
2023/05/03 04:23:37;;;;;;;6.60;3.47;;;;;;;10.54;79.85;93392.66;5131408;27;20043;-75
2023/05/03 04:26:04;;;;;;;6.93;3.78;;;;;;;10.61;79.10;93396.00;5131685;27;20130;-75
2023/05/03 04:28:30;;;;;;;10.57;4.55;;;;;;;10.42;77.74;93359.09;5130773;27;20043;-75
2023/05/03 04:30:58;;;;;;;6.70;4.25;;;;;;;10.66;77.93;93396.13;5118100;27;20052;-75
2023/05/03 04:33:28;;;;;;;7.70;4.18;;;;;;;10.64;77.84;93395.56;5130977;27;20100;-75
2023/05/03 04:35:55;;;;;;;9.15;3.88;;;;;;;10.66;75.86;93398.72;5130836;27;20043;-75
2023/05/03 04:38:22;;;;;;;7.93;3.90;;;;;;;10.73;77.26;93408.97;5131154;27;20525;-75
2023/05/03 04:40:49;;;;;;;6.78;3.47;;;;;;;10.77;79.90;93406.75;5131106;27;20043;-75
2023/05/03 04:43:15;;;;;;;6.07;3.42;;;;;;;10.79;79.01;93408.13;5130980;27;20388;-75
2023/05/03 04:45:42;;;;;;;6.63;3.78;;;;;;;10.65;77.46;93402.28;5130544;27;20163;-75
2023/05/03 04:48:09;;;;;;;7.97;4.00;;;;;;;10.76;80.07;93407.75;5131166;27;20108;-75
2023/05/03 04:50:37;;;;;;;10.73;5.07;;;;;;;10.25;79.27;93410.13;5130160;27;20046;-75
2023/05/03 04:53:04;;;;;;;13.02;5.88;;;;;;;10.42;81.97;93402.75;5131041;27;20055;-75
2023/05/03 04:55:31;;;;;;;12.93;5.95;;;;;;;10.51;79.26;93404.13;5130552;27;20128;-75
2023/05/03 04:57:57;;;;;;;10.35;4.80;;;;;;;10.53;79.13;93404.72;5130599;27;20047;-75
2023/05/03 05:00:25;;;;;;;10.50;6.45;;;;;;;10.46;79.03;93411.63;5130130;27;20526;-75
2023/05/03 05:02:51;;;;;;;7.55;4.60;;;;;;;10.14;81.02;93408.97;5130679;27;20570;-75
2023/05/03 05:05:18;;;;;;;9.57;4.15;;;;;;;9.80;83.67;93397.97;5130283;27;20071;-75
2023/05/03 05:07:47;;;;;;;8.05;3.50;;;;;;;9.55;82.16;93401.94;5130522;27;20122;-75
2023/05/03 05:10:14;;;;;;;8.40;3.33;;;;;;;9.70;80.38;93411.19;5130269;27;20058;-75
2023/05/03 05:12:41;;;;;;;4.90;3.35;;;;;;;9.76;78.84;93412.97;5129855;27;20047;-75
2023/05/03 05:15:09;;;;;;;6.78;3.97;;;;;;;9.74;79.80;93413.19;5130772;27;20480;-76
2023/05/03 05:17:35;;;;;;;8.07;3.38;;;;;;;9.81;81.07;93415.72;5130459;27;20043;-75
2023/05/03 05:20:05;;;;;;;6.65;3.05;;;;;;;9.65;81.99;93411.81;5130356;27;20043;-76
2023/05/03 05:22:32;;;;;;;9.57;3.50;;;;;;;9.67;82.56;93439.81;5130511;27;20455;-75
2023/05/03 05:25:00;;;;;;;4.70;3.22;;;;;;;9.60;82.07;93434.69;5130336;27;20096;-75
2023/05/03 05:27:27;;;;;;;6.25;2.88;;;;;;;9.69;83.11;93448.09;5130364;27;20043;-75
2023/05/03 05:29:54;;;;;;;5.53;2.88;;;;;;;9.58;82.94;93439.25;5129962;27;20043;-75
2023/05/03 05:32:21;;;;;;;5.82;3.33;;;;;;;9.66;81.53;93458.75;5130048;27;20055;-75
2023/05/03 05:34:51;;;;;;;10.85;3.70;;;;;;;9.68;81.23;93457.56;5129937;27;20043;-76
2023/05/03 05:37:19;;;;;;;8.73;3.58;;;;;;;9.71;82.74;93458.94;5125554;27;20054;-75
2023/05/03 05:39:45;;;;;;;9.80;3.42;;;;;;;9.82;82.43;93473.75;5115537;27;20043;-75
2023/05/03 05:42:14;;;;;;;8.70;3.72;;;;;;;10.02;82.46;93453.22;5123965;27;20054;-75
2023/05/03 05:44:40;;;;;;;11.02;2.85;;;;;;;10.18;80.89;93455.56;5129908;27;20031;-75
2023/05/03 05:47:08;;;;;;;8.40;3.00;;;;;;;10.08;80.92;93427.72;5116438;27;20048;-75
2023/05/03 05:49:35;;;;;;;7.82;3.70;;;;;;;10.24;80.34;93449.63;5116788;27;20039;-75
2023/05/03 05:52:01;;;;;;;5.63;3.05;;;;;;;10.23;80.78;93450.63;5128917;27;20499;-75
2023/05/03 05:54:28;;;;;;;7.53;3.17;;;;;;;10.35;80.83;93441.28;5116996;27;20081;-75
2023/05/03 05:56:56;;;;;;;9.85;3.42;;;;;;;10.49;82.38;93439.50;5128907;27;20050;-75
2023/05/03 05:59:24;;;;;;;10.35;4.07;;;;;;;10.59;80.97;93433.16;5129492;27;20113;-75
2023/05/03 06:01:51;;;;;;;10.55;4.07;;;;;;;10.71;82.71;93436.66;5129456;27;20047;-75
2023/05/03 06:04:18;;;;;;;9.18;4.35;;;;;;;10.67;83.08;93435.47;5129408;27;20047;-75
2023/05/03 06:06:45;;;;;;;13.60;7.43;;;;;;;10.42;83.75;93431.78;5129287;27;20502;-75
2023/05/03 06:09:12;;;;;;;9.63;4.40;;;;;;;10.36;83.84;93434.34;5129014;27;20047;-75
2023/05/03 06:11:38;;;;;;;9.55;3.58;;;;;;;10.16;81.96;93432.66;5129282;27;20518;-75
2023/05/03 06:14:08;;;;;;;6.13;3.55;;;;;;;10.14;82.90;93424.38;5128114;27;20445;-75
2023/05/03 06:16:36;;;;;;;8.20;3.33;;;;;;;10.15;81.73;93410.53;5128899;27;20043;-75
2023/05/03 06:19:03;;;;;;;9.50;3.65;;;;;;;10.06;82.50;93417.66;5129498;27;20043;-75
2023/05/03 06:21:30;;;;;;;7.60;3.03;;;;;;;10.09;80.95;93421.63;5129129;27;20092;-75
2023/05/03 06:23:57;;;;;;;6.15;3.22;;;;;;;10.12;83.09;93424.56;5128600;27;20047;-75
2023/05/03 06:26:24;;;;;;;7.88;3.90;;;;;;;10.18;81.69;93424.75;5129157;27;20070;-75
2023/05/03 06:28:51;;;;;;;7.93;3.08;;;;;;;10.24;82.76;93424.72;5129159;27;20051;-75
2023/05/03 06:31:18;;;;;;;9.00;4.32;;;;;;;10.42;82.44;93418.16;5128521;27;21179;-75
2023/05/03 06:33:46;;;;;;;8.93;3.70;;;;;;;10.55;82.41;93407.06;5129298;27;20051;-74
2023/05/03 06:36:13;;;;;;;9.90;3.85;;;;;;;10.74;79.97;93420.81;5128604;27;20039;-75
2023/05/03 06:38:40;;;;;;;9.77;3.97;;;;;;;10.61;79.66;93410.59;5128900;27;20040;-75
2023/05/03 06:41:06;;;;;;;5.47;3.28;;;;;;;10.69;82.20;93400.88;5129042;27;20042;-75
2023/05/03 06:43:33;;;;;;;6.13;3.40;;;;;;;10.61;82.67;93390.84;5128618;27;20075;-75
2023/05/03 06:46:00;;;;;;;8.85;3.90;;;;;;;10.96;79.62;93408.47;5128592;27;20452;-75
2023/05/03 06:48:27;;;;;;;6.47;3.25;;;;;;;11.00;78.81;93402.88;5128915;27;20051;-76
2023/05/03 06:50:56;;;;;;;8.23;3.55;;;;;;;10.86;82.74;93395.25;5128203;27;20054;-75
2023/05/03 06:53:23;;;;;;;7.43;3.72;;;;;;;10.95;82.55;93408.66;5128437;27;20051;-75
2023/05/03 06:55:50;;;;;;;7.63;3.35;;;;;;;11.09;80.62;93399.09;5128230;27;20423;-75
2023/05/03 06:58:17;;;;;;;6.53;3.30;;;;;;;11.14;76.61;93393.31;5128554;27;20101;-75
2023/05/03 07:00:44;;;;;;;7.97;3.13;;;;;;;10.99;77.67;93378.19;5128271;27;20092;-76
2023/05/03 07:03:11;;;;;;;8.27;3.17;;;;;;;11.33;77.67;93407.03;5128673;27;20107;-75
2023/05/03 07:05:38;;;;;;;8.52;3.40;;;;;;;11.66;78.22;93423.22;5128628;27;20104;-75
2023/05/03 07:08:06;;;;;;;7.65;3.05;;;;;;;11.99;75.54;93432.44;5128467;27;20043;-75
2023/05/03 07:10:33;;;;;;;6.60;2.97;;;;;;;12.27;73.63;93436.34;5127709;27;20047;-75
2023/05/03 07:13:00;;;;;;;8.00;3.72;;;;;;;12.54;73.25;93439.41;5128546;27;20157;-75
2023/05/03 07:15:26;;;;;;;6.85;3.20;;;;;;;12.65;69.89;93440.47;5128360;27;20039;-75
2023/05/03 07:17:53;;;;;;;7.65;4.38;;;;;;;12.39;72.31;93437.22;5127910;27;20055;-75
2023/05/03 07:20:20;;;;;;;9.35;4.70;;;;;;;12.25;71.27;93433.19;5128419;27;20062;-75
2023/05/03 07:22:47;;;;;;;107.75;45.67;;;;;;;11.52;74.75;93387.28;5128130;27;20424;-75
2023/05/03 07:25:16;;;;;;;10.10;4.25;;;;;;;11.68;78.97;93416.88;5127683;27;20047;-75
2023/05/03 07:27:43;;;;;;;6.35;3.17;;;;;;;11.50;76.64;93407.31;5128191;27;20055;-75
2023/05/03 07:30:10;;;;;;;8.95;3.75;;;;;;;11.77;80.01;93425.09;5101088;28;20047;-75
2023/05/03 07:32:37;;;;;;;5.30;3.22;;;;;;;12.00;76.06;93421.91;5127815;27;20491;-75
2023/05/03 07:35:04;;;;;;;8.93;3.30;;;;;;;12.08;78.24;93425.25;5127955;27;20507;-75
2023/05/03 07:37:31;;;;;;;8.20;3.53;;;;;;;12.24;75.06;93418.75;5127486;27;20503;-75
2023/05/03 07:39:58;;;;;;;15.48;4.60;;;;;;;12.22;73.81;93418.94;5125683;27;20415;-75
2023/05/03 07:42:26;;;;;;;7.88;3.67;;;;;;;12.16;74.71;93407.72;5116475;28;20039;-75
2023/05/03 07:44:54;;;;;;;7.80;3.53;;;;;;;12.11;76.00;93419.66;5127879;27;20051;-75
2023/05/03 07:47:21;;;;;;;8.27;4.10;;;;;;;12.36;75.14;93419.59;5127745;27;20063;-75
2023/05/03 07:49:49;;;;;;;9.63;4.00;;;;;;;12.67;75.31;93417.06;5128177;27;20065;-75
2023/05/03 07:52:16;;;;;;;14.85;5.53;;;;;;;12.69;73.82;93417.66;5127327;27;20051;-75
2023/05/03 07:54:44;;;;;;;8.98;4.65;;;;;;;12.96;73.03;93420.66;5127711;27;20410;-75
2023/05/03 07:57:11;;;;;;;11.05;3.47;;;;;;;13.08;71.73;93428.44;5127994;27;20065;-75
2023/05/03 07:59:39;;;;;;;10.93;3.92;;;;;;;13.51;71.23;93436.19;5127325;27;20062;-75
2023/05/03 08:02:06;;;;;;;8.88;3.55;;;;;;;13.51;69.52;93427.69;5126855;27;20062;-75
2023/05/03 08:04:33;;;;;;;9.52;3.92;;;;;;;13.72;68.62;93439.25;5127838;27;20072;-75
2023/05/03 08:07:01;;;;;;;11.60;4.57;;;;;;;13.59;67.94;93442.84;5127255;27;20047;-75
2023/05/03 08:09:28;;;;;;;12.13;4.22;;;;;;;12.93;68.69;93440.94;5117724;27;20126;-75
2023/05/03 08:11:55;;;;;;;14.27;4.72;;;;;;;12.71;71.40;93425.94;5116876;28;20086;-75
2023/05/03 08:14:21;;;;;;;14.63;5.78;;;;;;;12.90;72.12;93424.13;5123993;27;20084;-75
2023/05/03 08:16:50;;;;;;;16.25;4.88;;;;;;;13.26;69.42;93438.91;5124706;27;20466;-75
2023/05/03 08:19:17;;;;;;;13.73;4.43;;;;;;;13.19;70.50;93444.97;5127353;27;20043;-75
2023/05/03 08:21:45;;;;;;;14.13;4.50;;;;;;;13.09;67.73;93437.75;5127377;27;20039;-75
2023/05/03 08:24:12;;;;;;;17.55;6.05;;;;;;;13.36;69.95;93406.44;5127639;27;20043;-76
2023/05/03 08:26:39;;;;;;;16.80;4.78;;;;;;;13.63;66.94;93441.38;5124355;27;20494;-75
2023/05/03 08:29:07;;;;;;;12.95;5.30;;;;;;;14.15;69.16;93434.78;5106690;28;20048;-77
2023/05/03 08:31:34;;;;;;;10.30;3.92;;;;;;;14.85;66.56;93442.63;5125094;28;20062;-76
2023/05/03 08:34:02;;;;;;;17.10;5.00;;;;;;;15.52;60.83;93434.47;5127545;27;20491;-76
2023/05/03 08:36:30;;;;;;;10.85;4.60;;;;;;;16.01;58.57;93436.50;5128657;27;20650;-76
2023/05/03 08:38:57;;;;;;;12.43;4.78;;;;;;;16.16;56.56;93438.56;5131618;27;20450;-77
2023/05/03 08:41:28;;;;;;;10.32;3.70;;;;;;;15.21;58.64;93438.13;5122219;27;20046;-76
2023/05/03 08:43:56;;;;;;;16.25;4.72;;;;;;;15.02;59.69;93437.53;5129539;27;20046;-76
2023/05/03 08:46:24;;;;;;;11.65;4.63;;;;;;;15.06;60.04;93435.25;5129228;27;20043;-76
2023/05/03 08:48:52;;;;;;;13.98;5.38;;;;;;;15.28;59.77;93437.19;5128322;27;20044;-76
2023/05/03 08:51:21;;;;;;;15.30;4.80;;;;;;;15.46;60.76;93407.72;5129102;27;20078;-76
2023/05/03 08:53:48;;;;;;;11.30;4.20;;;;;;;16.01;59.51;93441.69;5128814;27;20134;-77
2023/05/03 08:56:23;;;;;;;8.23;4.25;;;;;;;16.28;56.96;93446.22;5129178;27;20043;-77
2023/05/03 08:58:50;;;;;;;12.10;4.75;;;;;;;16.39;57.03;93447.91;5129053;27;20068;-76
2023/05/03 09:01:18;;;;;;;11.10;4.28;;;;;;;16.23;56.66;93444.34;5130278;27;20061;-76
2023/05/03 09:03:49;;;;;;;7.78;3.90;;;;;;;16.15;58.35;93442.94;5128094;27;20047;-76
2023/05/03 09:06:24;;;;;;;24.45;12.40;;;;;;;16.74;58.09;93427.03;5119721;27;20047;-76
2023/05/03 09:08:51;;;;;;;13.05;6.53;;;;;;;17.18;55.67;93418.47;5130013;27;20062;-76
2023/05/03 09:11:22;;;;;;;10.85;4.18;;;;;;;17.33;51.71;93391.84;5130664;27;20047;-77
2023/05/03 09:13:51;;;;;;;10.90;3.95;;;;;;;17.84;54.60;93419.25;5130347;27;20053;-77
2023/05/03 09:16:27;;;;;;;9.25;3.60;;;;;;;18.21;52.59;93410.66;5127331;27;20074;-78
2023/05/03 09:18:58;;;;;;;8.73;3.72;;;;;;;18.36;52.60;93386.53;5114284;27;20570;-77
2023/05/03 09:21:26;;;;;;;9.38;3.60;;;;;;;18.73;48.98;93410.88;5130239;27;20069;-76
2023/05/03 09:23:53;;;;;;;8.27;3.97;;;;;;;19.04;51.48;93402.38;5130281;27;20431;-76
2023/05/03 09:26:31;;;;;;;8.07;2.97;;;;;;;19.29;51.87;93404.25;5123483;27;20047;-76
2023/05/03 09:28:59;;;;;;;5.93;2.90;;;;;;;18.78;50.42;93394.47;5126101;27;20070;-76
2023/05/03 09:31:26;;;;;;;10.40;3.40;;;;;;;16.99;54.81;93390.22;5131111;27;20051;-76
2023/05/03 09:33:53;;;;;;;7.90;3.00;;;;;;;16.78;55.35;93391.81;5130351;27;20329;-77
2023/05/03 09:36:20;;;;;;;10.38;3.50;;;;;;;16.75;53.56;93385.31;5130792;27;20121;-76
2023/05/03 09:38:49;;;;;;;7.18;3.10;;;;;;;17.07;53.19;93392.41;5130663;27;20108;-76
2023/05/03 09:41:16;;;;;;;8.57;3.70;;;;;;;16.69;54.07;93387.09;5130461;27;20047;-75
2023/05/03 09:43:51;;;;;;;6.97;3.67;;;;;;;17.05;53.60;93381.50;5130093;27;20096;-76
2023/05/03 09:46:19;;;;;;;9.43;3.97;;;;;;;17.45;53.86;93382.06;5129991;27;20050;-75
2023/05/03 09:48:46;;;;;;;8.35;3.28;;;;;;;17.76;53.85;93390.09;5130075;27;20049;-75
2023/05/03 09:51:12;;;;;;;13.15;3.80;;;;;;;17.65;51.78;93391.06;5130052;27;20095;-75
2023/05/03 09:53:40;;;;;;;11.82;3.63;;;;;;;17.51;53.19;93382.91;5129923;27;20107;-75
2023/05/03 09:56:11;;;;;;;10.57;3.00;;;;;;;16.57;56.27;93389.00;5130303;27;20418;-76
2023/05/03 09:58:38;;;;;;;6.68;3.53;;;;;;;16.31;56.69;93386.13;5128892;27;20049;-75
2023/05/03 10:01:06;;;;;;;11.57;3.00;;;;;;;16.58;54.42;93392.38;5129622;27;20043;-75
2023/05/03 10:03:39;;;;;;;15.13;4.28;;;;;;;16.13;54.51;93374.22;5129201;27;20058;-76
2023/05/03 10:06:12;;;;;;;10.45;3.65;;;;;;;15.92;57.10;93378.34;5129640;27;20047;-75
2023/05/03 10:08:42;;;;;;;8.50;3.70;;;;;;;15.99;57.50;93366.03;5129489;27;20051;-75
2023/05/03 10:11:17;;;;;;;9.65;3.60;;;;;;;16.42;55.59;93348.94;5129117;27;20092;-76
2023/05/03 10:13:44;;;;;;;16.63;3.83;;;;;;;16.45;56.48;93363.22;5129592;27;20047;-75
2023/05/03 10:16:16;;;;;;;12.27;3.30;;;;;;;16.22;55.53;93361.63;5129422;27;20047;-76
2023/05/03 10:18:48;;;;;;;7.93;3.50;;;;;;;16.28;57.89;93358.09;5128923;27;20049;-76
2023/05/03 10:21:20;;;;;;;8.00;3.35;;;;;;;16.85;56.37;93357.91;5115727;27;20052;-75
2023/05/03 10:24:17;;;;;;;10.95;3.55;;;;;;;17.05;55.15;93355.53;5113728;27;20082;-75
2023/05/03 10:26:47;;;;;;;7.35;3.50;;;;;;;17.01;53.87;93338.88;5065267;28;20562;-76
2023/05/03 10:29:48;;;;;;;10.77;3.70;;;;;;;16.80;55.30;93362.03;5114550;27;20386;-75
2023/05/03 10:32:35;;;;;;;10.60;3.15;;;;;;;17.14;55.10;93366.25;5104190;27;20620;-75
2023/05/03 10:35:05;;;;;;;9.23;3.65;;;;;;;17.36;54.10;93368.00;5128331;27;20415;-76
2023/05/03 10:37:33;;;;;;;9.70;3.85;;;;;;;17.59;53.65;93360.91;5128952;27;20054;-76
2023/05/03 10:40:09;;;;;;;9.82;3.28;;;;;;;17.79;54.28;93349.06;5128295;27;20039;-76
2023/05/03 10:42:38;;;;;;;11.00;3.07;;;;;;;17.85;52.74;93359.22;5128262;27;20054;-76
2023/05/03 10:45:07;;;;;;;9.43;3.40;;;;;;;17.49;52.45;93361.59;5101503;27;20311;-76
2023/05/03 10:47:34;;;;;;;8.38;2.75;;;;;;;16.96;55.78;93359.56;5128028;27;20126;-76
2023/05/03 10:50:26;;;;;;;8.15;2.45;;;;;;;17.06;55.31;93351.13;5128511;27;20047;-76
2023/05/03 10:52:53;;;;;;;6.22;2.67;;;;;;;17.11;54.66;93353.00;5128279;27;20905;-76
2023/05/03 10:55:23;;;;;;;7.32;3.00;;;;;;;16.98;54.68;93348.97;5128525;27;20059;-75
2023/05/03 10:57:54;;;;;;;7.85;2.63;;;;;;;16.77;56.86;93326.22;5128355;27;20100;-75
2023/05/03 11:00:28;;;;;;;9.75;3.40;;;;;;;16.23;59.53;93348.44;5127467;27;20408;-76
2023/05/03 11:03:09;;;;;;;8.30;3.45;;;;;;;15.85;61.97;93360.38;5128521;27;20039;-75
2023/05/03 11:05:37;;;;;;;4.88;3.25;;;;;;;15.70;63.81;93361.72;5128568;27;20051;-76
2023/05/03 11:08:15;;;;;;;4.43;3.10;;;;;;;15.80;63.45;93355.13;5128255;27;20050;-76
2023/05/03 11:10:44;;;;;;;6.18;3.30;;;;;;;16.35;62.67;93361.28;5114675;27;20042;-76
2023/05/03 11:13:13;;;;;;;3.83;2.92;;;;;;;16.45;60.75;93359.81;5128093;27;20051;-76
2023/05/03 11:15:40;;;;;;;7.80;3.63;;;;;;;16.56;60.91;93356.31;5127980;27;20046;-76
2023/05/03 11:18:08;;;;;;;8.15;3.53;;;;;;;16.13;60.87;93358.69;5127726;27;20139;-75
2023/05/03 11:20:35;;;;;;;6.53;3.15;;;;;;;16.26;60.81;93340.16;5127893;27;20043;-75
2023/05/03 11:23:02;;;;;;;5.28;3.60;;;;;;;16.28;63.06;93345.91;5127910;27;20051;-76
2023/05/03 11:25:29;;;;;;;7.28;2.75;;;;;;;16.32;63.78;93340.22;5128065;27;20481;-75
2023/05/03 11:27:56;;;;;;;5.13;3.60;;;;;;;16.64;63.15;93327.38;5127338;27;20050;-75
2023/05/03 11:30:30;;;;;;;4.40;3.08;;;;;;;16.96;61.39;93298.06;5127676;27;20246;-75
2023/05/03 11:32:58;;;;;;;4.05;2.97;;;;;;;17.45;57.95;93324.19;5127482;27;20085;-75
2023/05/03 11:35:25;;;;;;;5.88;3.50;;;;;;;17.36;59.45;93327.22;5128379;27;20092;-76
2023/05/03 11:37:52;;;;;;;5.55;3.38;;;;;;;16.90;61.80;93319.81;5127886;27;20047;-76